sensor_id;sensor_type;location;lat;lon;timestamp;temperature;humidity
20422;DHT22;10370;53.102;18.034;2022-10-23T00:01:48;12.50;99.90
20422;DHT22;10370;53.102;18.034;2022-10-23T00:07:10;12.50;99.90
20422;DHT22;10370;53.102;18.034;2022-10-23T00:12:31;12.50;99.90
20422;DHT22;10370;53.102;18.034;2022-10-23T00:17:52;12.50;99.90
20422;DHT22;10370;53.102;18.034;2022-10-23T00:23:16;12.60;99.90
20422;DHT22;10370;53.102;18.034;2022-10-23T00:28:37;12.60;99.90
20422;DHT22;10370;53.102;18.034;2022-10-23T00:33:59;12.60;99.90
20422;DHT22;10370;53.102;18.034;2022-10-23T00:39:20;12.60;99.90
20422;DHT22;10370;53.102;18.034;2022-10-23T00:50:04;12.60;99.90
20422;DHT22;10370;53.102;18.034;2022-10-23T00:55:27;12.60;99.90
20422;DHT22;10370;53.102;18.034;2022-10-23T01:00:53;12.60;99.90
20422;DHT22;10370;53.102;18.034;2022-10-23T01:06:26;12.60;99.90
20422;DHT22;10370;53.102;18.034;2022-10-23T01:12:00;12.60;99.90
20422;DHT22;10370;53.102;18.034;2022-10-23T01:17:51;12.60;99.90
20422;DHT22;10370;53.102;18.034;2022-10-23T01:28:51;12.60;99.90
20422;DHT22;10370;53.102;18.034;2022-10-23T01:34:19;12.60;99.90
20422;DHT22;10370;53.102;18.034;2022-10-23T01:39:47;12.60;99.90
20422;DHT22;10370;53.102;18.034;2022-10-23T01:45:16;12.60;99.90
20422;DHT22;10370;53.102;18.034;2022-10-23T01:50:40;12.60;99.90
20422;DHT22;10370;53.102;18.034;2022-10-23T01:56:10;12.60;99.90
20422;DHT22;10370;53.102;18.034;2022-10-23T02:01:33;12.60;99.90
20422;DHT22;10370;53.102;18.034;2022-10-23T02:06:57;12.60;99.90
20422;DHT22;10370;53.102;18.034;2022-10-23T02:23:32;12.60;99.90
20422;DHT22;10370;53.102;18.034;2022-10-23T02:29:03;12.60;99.90
20422;DHT22;10370;53.102;18.034;2022-10-23T02:34:27;12.60;99.90
20422;DHT22;10370;53.102;18.034;2022-10-23T02:39:56;12.70;99.90
20422;DHT22;10370;53.102;18.034;2022-10-23T02:57:03;12.60;99.90
20422;DHT22;10370;53.102;18.034;2022-10-23T03:02:31;12.60;99.90
20422;DHT22;10370;53.102;18.034;2022-10-23T03:07:55;12.60;99.90
20422;DHT22;10370;53.102;18.034;2022-10-23T03:13:17;12.60;99.90
20422;DHT22;10370;53.102;18.034;2022-10-23T03:18:38;12.60;99.90
20422;DHT22;10370;53.102;18.034;2022-10-23T03:24:02;12.60;99.90
20422;DHT22;10370;53.102;18.034;2022-10-23T03:29:25;12.50;99.90
20422;DHT22;10370;53.102;18.034;2022-10-23T03:34:47;12.50;99.90
20422;DHT22;10370;53.102;18.034;2022-10-23T03:40:09;12.40;99.90
20422;DHT22;10370;53.102;18.034;2022-10-23T03:45:31;12.40;99.90
20422;DHT22;10370;53.102;18.034;2022-10-23T03:50:52;12.40;99.90
20422;DHT22;10370;53.102;18.034;2022-10-23T03:56:17;12.40;99.90
20422;DHT22;10370;53.102;18.034;2022-10-23T04:01:38;12.30;99.90
20422;DHT22;10370;53.102;18.034;2022-10-23T04:07:02;12.30;99.90
20422;DHT22;10370;53.102;18.034;2022-10-23T04:12:24;12.30;99.90
20422;DHT22;10370;53.102;18.034;2022-10-23T04:17:45;12.30;99.90
20422;DHT22;10370;53.102;18.034;2022-10-23T04:23:08;12.30;99.90
20422;DHT22;10370;53.102;18.034;2022-10-23T04:28:30;12.30;99.90
20422;DHT22;10370;53.102;18.034;2022-10-23T04:33:54;12.30;99.90
20422;DHT22;10370;53.102;18.034;2022-10-23T04:39:19;12.30;99.90
20422;DHT22;10370;53.102;18.034;2022-10-23T04:44:40;12.30;99.90
20422;DHT22;10370;53.102;18.034;2022-10-23T04:50:01;12.30;99.90
20422;DHT22;10370;53.102;18.034;2022-10-23T04:55:23;12.30;99.90
20422;DHT22;10370;53.102;18.034;2022-10-23T05:00:45;12.30;99.90
20422;DHT22;10370;53.102;18.034;2022-10-23T05:06:06;12.30;99.90
20422;DHT22;10370;53.102;18.034;2022-10-23T05:11:27;12.30;99.90
20422;DHT22;10370;53.102;18.034;2022-10-23T05:16:56;12.30;99.90
20422;DHT22;10370;53.102;18.034;2022-10-23T05:22:20;12.30;99.90
20422;DHT22;10370;53.102;18.034;2022-10-23T05:27:43;12.40;99.90
20422;DHT22;10370;53.102;18.034;2022-10-23T05:33:04;12.30;99.90
20422;DHT22;10370;53.102;18.034;2022-10-23T05:38:26;12.30;99.90
20422;DHT22;10370;53.102;18.034;2022-10-23T05:43:47;12.30;99.90
20422;DHT22;10370;53.102;18.034;2022-10-23T05:49:08;12.40;99.90
20422;DHT22;10370;53.102;18.034;2022-10-23T05:54:30;12.40;99.90
20422;DHT22;10370;53.102;18.034;2022-10-23T05:59:50;12.40;99.90
20422;DHT22;10370;53.102;18.034;2022-10-23T06:05:11;12.40;99.90
20422;DHT22;10370;53.102;18.034;2022-10-23T06:10:32;12.40;99.90
20422;DHT22;10370;53.102;18.034;2022-10-23T06:15:52;12.50;99.90
20422;DHT22;10370;53.102;18.034;2022-10-23T06:21:15;12.50;99.90
20422;DHT22;10370;53.102;18.034;2022-10-23T06:26:36;12.60;99.90
20422;DHT22;10370;53.102;18.034;2022-10-23T06:31:56;12.60;99.90
20422;DHT22;10370;53.102;18.034;2022-10-23T06:37:17;12.60;99.90
20422;DHT22;10370;53.102;18.034;2022-10-23T06:42:37;12.60;99.90
20422;DHT22;10370;53.102;18.034;2022-10-23T06:47:59;12.60;99.90
20422;DHT22;10370;53.102;18.034;2022-10-23T06:53:20;12.70;99.90
20422;DHT22;10370;53.102;18.034;2022-10-23T06:58:43;12.70;99.90
20422;DHT22;10370;53.102;18.034;2022-10-23T07:04:04;12.70;99.90
20422;DHT22;10370;53.102;18.034;2022-10-23T07:09:25;12.80;99.90
20422;DHT22;10370;53.102;18.034;2022-10-23T07:14:49;12.90;99.90
20422;DHT22;10370;53.102;18.034;2022-10-23T07:20:10;12.90;99.90
20422;DHT22;10370;53.102;18.034;2022-10-23T07:25:32;12.90;99.90
20422;DHT22;10370;53.102;18.034;2022-10-23T07:30:57;13.00;99.90
20422;DHT22;10370;53.102;18.034;2022-10-23T07:36:18;13.10;99.90
20422;DHT22;10370;53.102;18.034;2022-10-23T07:41:39;13.20;99.90
20422;DHT22;10370;53.102;18.034;2022-10-23T07:47:00;13.20;99.90
20422;DHT22;10370;53.102;18.034;2022-10-23T07:52:21;13.20;99.90
20422;DHT22;10370;53.102;18.034;2022-10-23T07:57:42;13.20;99.90
20422;DHT22;10370;53.102;18.034;2022-10-23T08:03:03;13.20;99.90
20422;DHT22;10370;53.102;18.034;2022-10-23T08:08:24;13.40;99.90
20422;DHT22;10370;53.102;18.034;2022-10-23T08:13:45;13.50;99.90
20422;DHT22;10370;53.102;18.034;2022-10-23T08:19:07;13.60;99.90
20422;DHT22;10370;53.102;18.034;2022-10-23T08:24:28;13.70;99.90
20422;DHT22;10370;53.102;18.034;2022-10-23T08:29:49;13.80;99.90
20422;DHT22;10370;53.102;18.034;2022-10-23T08:35:09;13.90;99.90
20422;DHT22;10370;53.102;18.034;2022-10-23T08:40:31;14.00;99.90
20422;DHT22;10370;53.102;18.034;2022-10-23T08:46:02;14.00;99.90
20422;DHT22;10370;53.102;18.034;2022-10-23T08:51:33;14.00;99.90
20422;DHT22;10370;53.102;18.034;2022-10-23T08:57:30;14.10;99.90
20422;DHT22;10370;53.102;18.034;2022-10-23T09:03:00;14.20;99.90
20422;DHT22;10370;53.102;18.034;2022-10-23T09:08:32;14.10;99.90
20422;DHT22;10370;53.102;18.034;2022-10-23T09:19:45;14.10;99.90
20422;DHT22;10370;53.102;18.034;2022-10-23T09:25:09;14.10;99.90
20422;DHT22;10370;53.102;18.034;2022-10-23T09:30:37;14.20;99.90
20422;DHT22;10370;53.102;18.034;2022-10-23T09:36:04;14.20;99.90
20422;DHT22;10370;53.102;18.034;2022-10-23T09:41:29;14.30;99.90
20422;DHT22;10370;53.102;18.034;2022-10-23T09:57:43;14.80;99.90
20422;DHT22;10370;53.102;18.034;2022-10-23T10:03:16;14.90;99.90
20422;DHT22;10370;53.102;18.034;2022-10-23T10:08:49;14.90;99.90
20422;DHT22;10370;53.102;18.034;2022-10-23T10:25:43;15.20;99.90
20422;DHT22;10370;53.102;18.034;2022-10-23T10:31:29;15.30;99.90
20422;DHT22;10370;53.102;18.034;2022-10-23T10:37:03;15.60;99.90
20422;DHT22;10370;53.102;18.034;2022-10-23T10:54:29;15.40;99.90
20422;DHT22;10370;53.102;18.034;2022-10-23T10:59:55;15.30;99.90
20422;DHT22;10370;53.102;18.034;2022-10-23T11:05:28;15.10;99.90
20422;DHT22;10370;53.102;18.034;2022-10-23T11:10:54;15.20;99.90
20422;DHT22;10370;53.102;18.034;2022-10-23T11:16:35;15.30;99.90
20422;DHT22;10370;53.102;18.034;2022-10-23T11:22:18;15.30;99.90
20422;DHT22;10370;53.102;18.034;2022-10-23T11:38:49;15.20;99.90
20422;DHT22;10370;53.102;18.034;2022-10-23T11:44:46;15.30;99.90
20422;DHT22;10370;53.102;18.034;2022-10-23T11:50:22;15.50;99.90
20422;DHT22;10370;53.102;18.034;2022-10-23T11:55:56;15.60;99.90
20422;DHT22;10370;53.102;18.034;2022-10-23T12:01:28;15.80;99.90
20422;DHT22;10370;53.102;18.034;2022-10-23T12:12:15;15.80;99.90
20422;DHT22;10370;53.102;18.034;2022-10-23T12:17:38;15.80;99.90
20422;DHT22;10370;53.102;18.034;2022-10-23T12:34:09;15.80;99.90
20422;DHT22;10370;53.102;18.034;2022-10-23T12:39:35;15.70;99.90
20422;DHT22;10370;53.102;18.034;2022-10-23T12:45:28;15.60;99.90
20422;DHT22;10370;53.102;18.034;2022-10-23T12:50:52;15.70;99.90
20422;DHT22;10370;53.102;18.034;2022-10-23T12:56:14;16.00;99.90
20422;DHT22;10370;53.102;18.034;2022-10-23T13:01:36;16.00;99.90
20422;DHT22;10370;53.102;18.034;2022-10-23T13:07:01;15.80;99.90
20422;DHT22;10370;53.102;18.034;2022-10-23T13:12:23;15.60;99.90
20422;DHT22;10370;53.102;18.034;2022-10-23T13:23:25;15.60;99.90
20422;DHT22;10370;53.102;18.034;2022-10-23T13:28:47;15.70;99.90
20422;DHT22;10370;53.102;18.034;2022-10-23T13:34:21;15.70;99.90
20422;DHT22;10370;53.102;18.034;2022-10-23T13:39:42;15.60;99.90
20422;DHT22;10370;53.102;18.034;2022-10-23T13:45:11;15.50;99.90
20422;DHT22;10370;53.102;18.034;2022-10-23T13:50:35;15.50;99.90
20422;DHT22;10370;53.102;18.034;2022-10-23T13:55:56;15.50;99.90
20422;DHT22;10370;53.102;18.034;2022-10-23T14:06:39;15.40;99.90
20422;DHT22;10370;53.102;18.034;2022-10-23T14:12:01;15.30;99.90
20422;DHT22;10370;53.102;18.034;2022-10-23T14:17:23;15.10;99.90
20422;DHT22;10370;53.102;18.034;2022-10-23T14:22:44;15.00;99.90
20422;DHT22;10370;53.102;18.034;2022-10-23T14:28:08;14.80;99.90
20422;DHT22;10370;53.102;18.034;2022-10-23T14:33:29;14.70;99.90
20422;DHT22;10370;53.102;18.034;2022-10-23T14:38:54;14.70;99.90
20422;DHT22;10370;53.102;18.034;2022-10-23T14:44:16;14.60;99.90
20422;DHT22;10370;53.102;18.034;2022-10-23T14:49:36;14.50;99.90
20422;DHT22;10370;53.102;18.034;2022-10-23T14:54:59;14.40;99.90
20422;DHT22;10370;53.102;18.034;2022-10-23T15:00:21;14.20;99.90
20422;DHT22;10370;53.102;18.034;2022-10-23T15:05:42;14.00;99.90
20422;DHT22;10370;53.102;18.034;2022-10-23T15:11:04;13.80;99.90
20422;DHT22;10370;53.102;18.034;2022-10-23T15:16:26;13.60;99.90
20422;DHT22;10370;53.102;18.034;2022-10-23T15:21:47;13.50;99.90
20422;DHT22;10370;53.102;18.034;2022-10-23T15:27:09;13.30;99.90
20422;DHT22;10370;53.102;18.034;2022-10-23T15:32:29;13.20;99.90
20422;DHT22;10370;53.102;18.034;2022-10-23T15:37:50;13.00;99.90
20422;DHT22;10370;53.102;18.034;2022-10-23T15:43:15;12.80;99.90
20422;DHT22;10370;53.102;18.034;2022-10-23T15:48:36;12.60;99.90
20422;DHT22;10370;53.102;18.034;2022-10-23T15:53:58;12.40;99.90
20422;DHT22;10370;53.102;18.034;2022-10-23T15:59:21;12.30;99.90
20422;DHT22;10370;53.102;18.034;2022-10-23T16:04:42;12.20;99.90
20422;DHT22;10370;53.102;18.034;2022-10-23T16:10:04;12.10;99.90
20422;DHT22;10370;53.102;18.034;2022-10-23T16:15:26;12.00;99.90
20422;DHT22;10370;53.102;18.034;2022-10-23T16:20:48;11.80;99.90
20422;DHT22;10370;53.102;18.034;2022-10-23T16:26:19;11.80;99.90
20422;DHT22;10370;53.102;18.034;2022-10-23T16:31:41;11.70;99.90
20422;DHT22;10370;53.102;18.034;2022-10-23T16:47:49;11.40;99.90
20422;DHT22;10370;53.102;18.034;2022-10-23T16:53:10;11.40;99.90
20422;DHT22;10370;53.102;18.034;2022-10-23T16:58:32;11.40;99.90
20422;DHT22;10370;53.102;18.034;2022-10-23T17:03:56;11.40;99.90
20422;DHT22;10370;53.102;18.034;2022-10-23T17:09:18;11.20;99.90
20422;DHT22;10370;53.102;18.034;2022-10-23T17:14:39;11.20;99.90
20422;DHT22;10370;53.102;18.034;2022-10-23T17:20:02;11.10;99.90
20422;DHT22;10370;53.102;18.034;2022-10-23T17:31:20;11.00;99.90
20422;DHT22;10370;53.102;18.034;2022-10-23T17:48:59;10.90;99.90
20422;DHT22;10370;53.102;18.034;2022-10-23T17:54:23;10.90;99.90
20422;DHT22;10370;53.102;18.034;2022-10-23T17:59:48;10.80;99.90
20422;DHT22;10370;53.102;18.034;2022-10-23T18:34:40;10.60;99.90
20422;DHT22;10370;53.102;18.034;2022-10-23T18:58:12;10.50;99.90
20422;DHT22;10370;53.102;18.034;2022-10-23T19:04:45;10.40;99.90
20422;DHT22;10370;53.102;18.034;2022-10-23T19:10:30;10.40;99.90
20422;DHT22;10370;53.102;18.034;2022-10-23T21:56:46;11.20;99.90
20422;DHT22;10370;53.102;18.034;2022-10-23T22:02:26;11.20;99.90
20422;DHT22;10370;53.102;18.034;2022-10-23T22:14:02;11.20;99.90
20422;DHT22;10370;53.102;18.034;2022-10-23T22:56:31;11.10;99.90
20422;DHT22;10370;53.102;18.034;2022-10-23T23:02:27;11.10;99.90
20422;DHT22;10370;53.102;18.034;2022-10-23T23:08:07;11.00;99.90
20422;DHT22;10370;53.102;18.034;2022-10-23T23:13:38;11.10;99.90
20422;DHT22;10370;53.102;18.034;2022-10-23T23:32:04;11.00;99.90
20422;DHT22;10370;53.102;18.034;2022-10-23T23:37:48;11.00;99.90
20422;DHT22;10370;53.102;18.034;2022-10-23T23:44:21;10.90;99.90
20422;DHT22;10370;53.102;18.034;2022-10-23T23:50:16;10.80;99.90
20422;DHT22;10370;53.102;18.034;2022-10-23T23:55:40;10.80;99.90
